Time;durP1;ratioP1;P1;durP2;ratioP2;P2;SDS_P1;SDS_P2;PMS_P1;PMS_P2;Temp;Humidity;BMP_temperature;BMP_pressure;BME280_temperature;BME280_humidity;BME280_pressure;Samples;Min_cycle;Max_cycle;Signal;HPM_P1;HPM_P2
2022/05/25 00:00:23;;;;;;;47.28;45.58;;;13.10;99.90;;;;;;5049666;28;20209;-71
2022/05/25 00:02:49;;;;;;;45.08;43.33;;;12.90;99.90;;;;;;5045261;28;20194;-70
2022/05/25 00:05:16;;;;;;;43.90;42.20;;;12.90;99.90;;;;;;5032428;28;20225;-69
2022/05/25 00:07:42;;;;;;;44.28;42.67;;;13.10;99.90;;;;;;5032112;28;20269;-70
2022/05/25 00:10:08;;;;;;;47.28;45.08;;;13.20;99.90;;;;;;5031775;28;20241;-70
2022/05/25 00:12:34;;;;;;;52.42;50.15;;;13.00;99.90;;;;;;5032747;28;20823;-69
2022/05/25 00:15:00;;;;;;;53.90;51.58;;;12.90;99.90;;;;;;5033013;28;20187;-70
2022/05/25 00:17:27;;;;;;;49.30;47.20;;;12.80;99.90;;;;;;5033496;28;20190;-70
2022/05/25 00:20:01;;;;;;;50.33;48.30;;;12.70;99.90;;;;;;5037342;28;20177;-70
2022/05/25 00:22:39;;;;;;;52.97;50.63;;;12.80;99.90;;;;;;5051989;28;20273;-69
2022/05/25 00:25:06;;;;;;;47.30;44.88;;;12.80;99.90;;;;;;5042506;28;20213;-69
2022/05/25 00:27:31;;;;;;;52.10;49.72;;;12.90;99.90;;;;;;5032731;28;20214;-70
2022/05/25 00:29:57;;;;;;;47.45;45.60;;;12.70;99.90;;;;;;5031840;28;20217;-70
2022/05/25 00:32:23;;;;;;;48.72;46.67;;;12.70;99.90;;;;;;5042329;28;20194;-69
2022/05/25 00:34:48;;;;;;;50.92;48.65;;;12.70;99.90;;;;;;5051665;28;20194;-69
2022/05/25 00:37:14;;;;;;;52.47;49.53;;;12.70;99.90;;;;;;5054540;28;20229;-69
2022/05/25 00:39:40;;;;;;;48.53;46.05;;;12.80;99.90;;;;;;5031756;28;20628;-70
2022/05/25 00:42:06;;;;;;;44.70;42.95;;;12.90;99.90;;;;;;5049614;28;20605;-70
2022/05/25 00:44:32;;;;;;;52.88;50.53;;;12.80;99.90;;;;;;5037860;28;20257;-70
2022/05/25 00:46:58;;;;;;;47.60;45.72;;;12.80;99.90;;;;;;5031294;28;20655;-69
2022/05/25 00:49:28;;;;;;;53.20;50.55;;;12.70;99.90;;;;;;5064872;28;20293;-70
2022/05/25 00:52:03;;;;;;;47.88;45.97;;;12.60;99.90;;;;;;5033055;28;20173;-70
2022/05/25 00:54:45;;;;;;;53.28;50.90;;;12.50;99.90;;;;;;5050480;28;20275;-70
2022/05/25 00:57:22;;;;;;;52.88;50.58;;;12.50;99.90;;;;;;5031727;28;20182;-70
2022/05/25 00:59:53;;;;;;;52.47;50.10;;;12.40;99.90;;;;;;5032433;28;20593;-70
2022/05/25 01:02:19;;;;;;;57.85;55.10;;;12.40;99.90;;;;;;5035591;28;20193;-70
2022/05/25 01:04:47;;;;;;;54.90;52.20;;;12.30;99.90;;;;;;5050279;28;20651;-73
2022/05/25 01:07:45;;;;;;;56.20;53.25;;;12.30;99.90;;;;;;5031778;28;20187;-69
2022/05/25 01:10:21;;;;;;;53.83;51.28;;;12.40;99.90;;;;;;5048295;28;20185;-70
2022/05/25 01:12:50;;;;;;;51.90;49.63;;;12.40;99.90;;;;;;5065070;28;20206;-70
2022/05/25 01:15:21;;;;;;;54.30;51.88;;;12.40;99.90;;;;;;5032241;28;20344;-70
2022/05/25 01:18:07;;;;;;;53.03;50.53;;;12.40;99.90;;;;;;5035576;28;20182;-69
2022/05/25 01:20:47;;;;;;;56.80;53.85;;;12.40;99.90;;;;;;5022950;28;20238;-70
2022/05/25 01:23:49;;;;;;;55.63;52.88;;;12.40;99.90;;;;;;5034726;28;20713;-71
2022/05/25 01:26:51;;;;;;;58.35;55.58;;;12.40;99.90;;;;;;5068720;28;20189;-69
2022/05/25 01:29:35;;;;;;;56.92;54.45;;;12.40;99.90;;;;;;5035392;28;20183;-69
2022/05/25 01:32:37;;;;;;;56.65;53.92;;;12.20;99.90;;;;;;5074996;28;20603;-70
2022/05/25 01:35:26;;;;;;;54.63;52.22;;;12.10;99.90;;;;;;5044901;28;20296;-70
2022/05/25 01:38:27;;;;;;;58.63;55.72;;;12.10;99.90;;;;;;5049190;28;20174;-70
2022/05/25 01:41:01;;;;;;;58.95;56.28;;;12.20;99.90;;;;;;5041817;28;20226;-69
2022/05/25 01:43:57;;;;;;;57.00;54.40;;;12.20;99.90;;;;;;5037794;28;20206;-70
2022/05/25 01:46:32;;;;;;;65.13;61.92;;;12.20;99.90;;;;;;5051776;28;20194;-70
2022/05/25 01:49:03;;;;;;;61.88;59.00;;;12.20;99.90;;;;;;5035881;28;20178;-70
2022/05/25 01:51:42;;;;;;;64.20;61.07;;;12.20;99.90;;;;;;5035816;28;20182;-70
2022/05/25 01:54:11;;;;;;;57.70;54.70;;;12.20;99.90;;;;;;5050478;28;20201;-70
2022/05/25 01:56:43;;;;;;;63.87;60.90;;;12.20;99.90;;;;;;5035172;28;20667;-70
2022/05/25 01:59:12;;;;;;;89.10;85.10;;;12.20;99.90;;;;;;5035926;28;20549;-70
2022/05/25 02:04:47;;;;;;;113.20;108.40;;;12.00;99.90;;;;;;5035622;28;20224;-70
2022/05/25 02:07:42;;;;;;;119.67;114.50;;;12.00;99.90;;;;;;5035826;28;20605;-70
2022/05/25 02:10:31;;;;;;;139.97;133.27;;;12.00;99.90;;;;;;5034204;28;20186;-71
2022/05/25 02:12:57;;;;;;;125.87;120.47;;;12.00;99.90;;;;;;5035339;28;20675;-70
2022/05/25 02:15:49;;;;;;;128.30;122.47;;;12.10;99.90;;;;;;5034032;28;20193;-70
2022/05/25 02:18:41;;;;;;;133.20;127.03;;;12.20;99.90;;;;;;5035475;28;20171;-71
2022/05/25 02:21:17;;;;;;;150.97;144.47;;;12.30;99.90;;;;;;5035380;28;20225;-70
2022/05/25 02:23:57;;;;;;;146.67;140.63;;;12.20;99.90;;;;;;5034828;28;20210;-70
2022/05/25 02:26:28;;;;;;;159.97;153.07;;;12.10;99.90;;;;;;5067055;28;20190;-69
2022/05/25 02:29:10;;;;;;;161.40;153.77;;;12.10;99.90;;;;;;5035032;28;20221;-70
2022/05/25 02:31:42;;;;;;;164.20;157.30;;;12.10;99.90;;;;;;5035111;28;20644;-70
2022/05/25 02:34:11;;;;;;;181.07;173.23;;;12.10;99.90;;;;;;5036702;28;20192;-70
2022/05/25 02:36:39;;;;;;;160.57;153.77;;;12.00;99.90;;;;;;5049630;28;20210;-70
2022/05/25 02:39:07;;;;;;;181.77;173.77;;;12.00;99.90;;;;;;5035087;28;20284;-70
2022/05/25 02:41:35;;;;;;;201.43;192.83;;;11.90;99.90;;;;;;5042536;28;20194;-71
2022/05/25 02:44:02;;;;;;;204.87;196.13;;;11.80;99.90;;;;;;5035073;28;20241;-71
2022/05/25 02:46:28;;;;;;;195.87;186.93;;;11.90;99.90;;;;;;5042495;28;20190;-70
2022/05/25 02:48:54;;;;;;;202.87;194.03;;;11.90;99.90;;;;;;5033651;28;20277;-70
2022/05/25 02:51:20;;;;;;;196.57;187.73;;;11.80;99.90;;;;;;5033413;28;20187;-70
2022/05/25 02:53:47;;;;;;;216.97;207.10;;;11.90;99.90;;;;;;5033612;28;20683;-70
2022/05/25 02:56:13;;;;;;;237.33;226.93;;;12.00;99.90;;;;;;5032945;28;20283;-70
2022/05/25 02:58:39;;;;;;;218.70;209.33;;;11.90;99.90;;;;;;5057027;28;20209;-70
2022/05/25 03:01:05;;;;;;;230.90;219.80;;;11.80;99.90;;;;;;5039231;28;20613;-70
2022/05/25 03:03:38;;;;;;;231.33;221.33;;;11.80;99.90;;;;;;5047783;28;20355;-71
2022/05/25 03:06:05;;;;;;;228.23;217.63;;;11.80;99.90;;;;;;5034415;28;20662;-71
2022/05/25 03:08:31;;;;;;;224.43;214.23;;;11.90;99.90;;;;;;5034445;28;20214;-72
2022/05/25 03:10:57;;;;;;;244.03;233.37;;;11.90;99.90;;;;;;5033956;28;20183;-70
2022/05/25 03:13:23;;;;;;;237.23;227.23;;;11.90;99.90;;;;;;5033911;28;20233;-71
2022/05/25 03:15:48;;;;;;;249.40;238.27;;;11.90;99.90;;;;;;5033260;28;20222;-71
2022/05/25 03:18:14;;;;;;;240.10;229.60;;;11.80;99.90;;;;;;5033006;28;20250;-71
2022/05/25 03:20:40;;;;;;;231.00;221.07;;;11.80;99.90;;;;;;5017014;28;20707;-71
2022/05/25 03:23:05;;;;;;;246.40;235.00;;;11.90;99.90;;;;;;5034614;28;20190;-71
2022/05/25 03:25:31;;;;;;;272.77;260.90;;;11.80;99.90;;;;;;5016427;28;20328;-71
2022/05/25 03:27:57;;;;;;;256.80;245.37;;;11.70;99.90;;;;;;5033938;28;20183;-71
2022/05/25 03:30:23;;;;;;;331.77;317.63;;;11.70;99.90;;;;;;5041314;28;20576;-71
2022/05/25 03:32:49;;;;;;;532.13;506.63;;;11.70;99.90;;;;;;5039878;28;20321;-71
2022/05/25 03:35:15;;;;;;;532.07;506.67;;;11.80;99.90;;;;;;5032834;28;20194;-71
2022/05/25 03:37:41;;;;;;;520.47;495.43;;;11.80;99.90;;;;;;5033816;28;20198;-71
2022/05/25 03:40:09;;;;;;;524.27;499.10;;;11.80;99.90;;;;;;5032873;28;20191;-71
2022/05/25 03:42:36;;;;;;;546.20;519.43;;;11.70;99.90;;;;;;5032461;28;20209;-72
2022/05/25 03:45:04;;;;;;;500.27;476.80;;;11.70;99.90;;;;;;5032564;28;20606;-73
2022/05/25 03:47:31;;;;;;;498.53;475.50;;;11.70;99.90;;;;;;5048229;28;20246;-71
2022/05/25 03:49:56;;;;;;;471.93;449.90;;;11.80;99.90;;;;;;5031938;28;20186;-75
2022/05/25 03:52:23;;;;;;;472.83;450.73;;;11.70;99.90;;;;;;5033556;28;20528;-71
2022/05/25 03:54:49;;;;;;;520.43;495.97;;;11.70;99.90;;;;;;5065767;28;20205;-71
2022/05/25 03:57:15;;;;;;;475.83;453.60;;;11.80;99.90;;;;;;5047064;28;20631;-71
2022/05/25 03:59:41;;;;;;;480.03;457.37;;;11.80;99.90;;;;;;5035324;28;20654;-71
2022/05/25 04:02:07;;;;;;;529.80;504.50;;;11.80;99.90;;;;;;5046121;28;20210;-71
2022/05/25 04:04:32;;;;;;;446.70;425.87;;;11.70;99.90;;;;;;5032382;28;20219;-71
2022/05/25 04:06:58;;;;;;;466.40;445.23;;;11.70;99.90;;;;;;5025256;28;20191;-71
2022/05/25 04:09:24;;;;;;;469.53;447.63;;;11.80;99.90;;;;;;5032050;28;20198;-71
2022/05/25 04:11:50;;;;;;;471.17;449.47;;;11.70;99.90;;;;;;5031998;28;20245;-71
2022/05/25 04:14:16;;;;;;;445.30;425.00;;;11.70;99.90;;;;;;5032103;28;20260;-71
2022/05/25 04:16:43;;;;;;;446.53;426.03;;;11.70;99.90;;;;;;5033398;28;20644;-71
2022/05/25 04:19:09;;;;;;;461.67;440.47;;;11.70;99.90;;;;;;5033265;28;20201;-71
2022/05/25 04:21:34;;;;;;;415.03;396.47;;;11.70;99.90;;;;;;5035132;28;20575;-72
2022/05/25 04:24:01;;;;;;;414.27;395.03;;;11.70;99.90;;;;;;5050125;28;20213;-71
2022/05/25 04:26:30;;;;;;;401.37;383.53;;;11.80;99.90;;;;;;5032044;28;20178;-71
2022/05/25 04:28:56;;;;;;;398.23;380.17;;;11.90;99.90;;;;;;5033224;28;20243;-71
2022/05/25 04:31:22;;;;;;;384.07;367.47;;;11.90;99.90;;;;;;5032222;28;20194;-71
2022/05/25 04:33:48;;;;;;;386.55;369.45;;;11.90;99.90;;;;;;5032458;28;20529;-71
2022/05/25 04:36:14;;;;;;;397.38;379.08;;;12.00;99.90;;;;;;5031794;28;20194;-71
2022/05/25 04:38:40;;;;;;;368.85;352.42;;;12.00;99.90;;;;;;5048108;28;20269;-71
2022/05/25 04:41:05;;;;;;;346.00;330.65;;;12.10;99.90;;;;;;5047079;28;20281;-71
2022/05/25 04:43:31;;;;;;;374.52;357.98;;;12.20;99.90;;;;;;5033229;28;20298;-71
2022/05/25 04:45:59;;;;;;;341.30;326.38;;;12.20;99.90;;;;;;5033483;28;20194;-71
2022/05/25 04:48:25;;;;;;;352.83;336.90;;;12.10;99.90;;;;;;5033146;28;20256;-71
2022/05/25 04:50:53;;;;;;;382.75;365.58;;;12.00;99.90;;;;;;5033172;28;20211;-71
2022/05/25 04:53:21;;;;;;;359.42;343.80;;;12.00;99.90;;;;;;5031634;28;20586;-71
2022/05/25 04:58:37;;;;;;;343.05;328.05;;;12.20;99.90;;;;;;5036259;28;20221;-71
2022/05/25 05:01:05;;;;;;;328.48;314.23;;;12.20;99.90;;;;;;5053909;28;20194;-71
2022/05/25 05:03:31;;;;;;;334.65;319.80;;;12.20;99.90;;;;;;5037324;28;20218;-71
2022/05/25 05:05:57;;;;;;;302.77;289.98;;;12.30;99.90;;;;;;5036323;28;20194;-71
2022/05/25 05:08:24;;;;;;;313.73;300.40;;;12.40;99.90;;;;;;5034969;28;20244;-71
2022/05/25 05:10:50;;;;;;;355.65;340.33;;;12.40;99.90;;;;;;5068192;28;20240;-72
2022/05/25 05:13:16;;;;;;;323.50;309.65;;;12.50;99.90;;;;;;5053511;28;20269;-71
2022/05/25 05:15:45;;;;;;;326.73;312.30;;;12.50;99.90;;;;;;5036497;28;20650;-71
2022/05/25 05:18:11;;;;;;;316.35;302.75;;;12.60;99.90;;;;;;5037069;28;20265;-71
2022/05/25 05:20:37;;;;;;;311.25;297.55;;;12.70;99.90;;;;;;5036186;28;20225;-71
2022/05/25 05:23:06;;;;;;;315.38;301.67;;;12.80;99.90;;;;;;5035484;28;20218;-70
2022/05/25 05:25:36;;;;;;;294.75;281.75;;;12.90;99.90;;;;;;5034819;28;20570;-71
2022/05/25 05:28:29;;;;;;;394.17;376.52;;;12.80;99.90;;;;;;5077932;28;20182;-71
2022/05/25 05:30:57;;;;;;;342.20;327.67;;;12.70;99.90;;;;;;5039102;28;20540;-71
2022/05/25 05:33:27;;;;;;;324.45;310.48;;;12.70;99.90;;;;;;5047341;28;20212;-71
2022/05/25 05:35:58;;;;;;;283.80;271.77;;;12.70;99.90;;;;;;5045787;28;20209;-71
2022/05/25 05:38:25;;;;;;;281.33;269.45;;;12.70;99.90;;;;;;5038280;28;20213;-70
2022/05/25 05:40:52;;;;;;;313.73;300.80;;;12.80;99.90;;;;;;5035960;28;20253;-71
2022/05/25 05:43:18;;;;;;;284.75;272.55;;;12.90;99.90;;;;;;5034667;28;20190;-71
2022/05/25 05:45:45;;;;;;;263.50;252.13;;;13.00;99.90;;;;;;5049506;28;20197;-71
2022/05/25 05:48:21;;;;;;;286.38;273.80;;;12.90;99.90;;;;;;5034819;28;20588;-71
2022/05/25 05:50:54;;;;;;;283.60;271.40;;;13.00;99.90;;;;;;5034983;28;20193;-71
2022/05/25 05:53:21;;;;;;;279.77;267.83;;;12.90;99.90;;;;;;5036428;28;20179;-71
2022/05/25 05:55:47;;;;;;;279.35;267.13;;;12.90;99.90;;;;;;5035617;28;20181;-71
2022/05/25 05:58:14;;;;;;;284.05;271.13;;;13.10;99.90;;;;;;5034421;28;20202;-72
2022/05/25 06:00:40;;;;;;;285.92;273.75;;;13.20;99.90;;;;;;5035400;28;20191;-71
2022/05/25 06:03:06;;;;;;;242.80;232.00;;;13.20;99.90;;;;;;5035992;28;20193;-71
2022/05/25 06:05:32;;;;;;;239.30;229.35;;;13.40;99.90;;;;;;5036015;28;20227;-70
2022/05/25 06:08:21;;;;;;;250.98;240.18;;;13.40;99.90;;;;;;5035173;28;20191;-82
2022/05/25 06:10:47;;;;;;;248.10;237.90;;;13.20;99.90;;;;;;5052436;28;20312;-83
2022/05/25 06:13:13;;;;;;;262.63;251.15;;;13.30;99.90;;;;;;5045317;28;20276;-80
2022/05/25 06:21:13;;;;;;;288.05;276.33;;;13.60;99.90;;;;;;5035281;28;20256;-70
2022/05/25 06:23:39;;;;;;;271.63;260.20;;;13.70;99.90;;;;;;5035137;28;20222;-72
2022/05/25 06:26:04;;;;;;;310.13;297.15;;;13.70;99.90;;;;;;5034094;28;20261;-71
2022/05/25 06:28:30;;;;;;;276.15;264.77;;;13.80;99.90;;;;;;5041599;28;20187;-68
2022/05/25 06:30:56;;;;;;;282.02;270.33;;;13.90;99.90;;;;;;5045900;28;20228;-68
2022/05/25 06:33:21;;;;;;;290.42;278.73;;;14.00;99.90;;;;;;5038627;28;20243;-71
2022/05/25 06:35:47;;;;;;;298.85;286.52;;;14.00;99.90;;;;;;5053333;28;20194;-68
2022/05/25 06:38:13;;;;;;;266.05;255.20;;;14.00;99.90;;;;;;5049264;28;20191;-74
2022/05/25 06:40:38;;;;;;;263.42;252.32;;;14.10;99.90;;;;;;5048078;28;20257;-70
2022/05/25 06:43:04;;;;;;;283.67;272.05;;;14.20;99.90;;;;;;5053550;28;20553;-70
2022/05/25 06:45:30;;;;;;;284.13;272.30;;;14.30;99.90;;;;;;5042513;28;20257;-69
2022/05/25 06:47:56;;;;;;;291.90;280.38;;;14.50;99.90;;;;;;5033451;28;20195;-69
2022/05/25 06:50:21;;;;;;;298.42;286.33;;;14.70;99.90;;;;;;5033328;28;20193;-69
2022/05/25 06:52:47;;;;;;;315.95;303.27;;;14.70;99.90;;;;;;5034727;28;20285;-69
2022/05/25 06:55:13;;;;;;;331.80;318.20;;;14.70;99.90;;;;;;5050100;28;20198;-69
2022/05/25 06:57:40;;;;;;;332.65;318.52;;;14.80;99.90;;;;;;5043605;28;20198;-70
2022/05/25 07:00:06;;;;;;;337.25;323.83;;;15.00;99.90;;;;;;5076592;28;20248;-69
2022/05/25 07:02:33;;;;;;;394.55;379.42;;;15.30;99.90;;;;;;5069388;28;20199;-69
2022/05/25 07:04:58;;;;;;;476.88;457.70;;;16.30;99.90;;;;;;5049029;28;20218;-68
2022/05/25 07:07:24;;;;;;;618.63;590.22;;;18.10;99.90;;;;;;5036046;28;20203;-69
2022/05/25 07:09:50;;;;;;;713.47;676.95;;;20.20;99.90;;;;;;5045100;28;20185;-69
2022/05/25 07:12:16;;;;;;;771.08;729.15;;;21.80;99.90;;;;;;5044849;28;20661;-79
2022/05/25 07:14:42;;;;;;;774.85;732.72;;;22.90;99.90;;;;;;5039352;28;20194;-76
2022/05/25 07:17:08;;;;;;;828.22;780.45;;;23.70;99.90;;;;;;5032938;28;20274;-77
2022/05/25 07:19:34;;;;;;;882.35;828.35;;;24.20;99.90;;;;;;5065985;28;20586;-75
2022/05/25 07:22:00;;;;;;;941.05;881.10;;;24.70;99.90;;;;;;5055783;28;20205;-73
2022/05/25 07:24:25;;;;;;;1999.90;999.90;;;24.90;99.90;;;;;;5035767;28;20201;-74
2022/05/25 07:26:51;;;;;;;1999.90;999.90;;;25.20;99.90;;;;;;5044750;28;20182;-72
2022/05/25 07:29:17;;;;;;;1999.90;999.90;;;25.90;99.90;;;;;;5034102;28;20190;-77
2022/05/25 07:31:54;;;;;;;1999.90;999.90;;;26.70;99.90;;;;;;5032403;28;20198;-77
2022/05/25 07:34:27;;;;;;;1999.90;999.90;;;26.10;99.90;;;;;;5066127;28;20328;-78
2022/05/25 07:37:02;;;;;;;1999.90;999.90;;;26.40;99.90;;;;;;5044669;28;20234;-78
2022/05/25 07:39:32;;;;;;;1999.90;999.90;;;27.00;99.90;;;;;;5040008;28;20186;-77
2022/05/25 07:42:02;;;;;;;1999.90;999.90;;;26.10;99.90;;;;;;5048042;28;20192;-73
2022/05/25 07:44:55;;;;;;;1999.90;999.90;;;25.50;99.90;;;;;;5047704;28;20328;-78
2022/05/25 07:47:21;;;;;;;1999.90;999.90;;;25.50;99.90;;;;;;5045774;28;20233;-80
2022/05/25 07:49:47;;;;;;;1999.90;999.90;;;26.20;99.90;;;;;;5037104;28;20193;-79
2022/05/25 07:52:13;;;;;;;1999.90;999.90;;;26.70;99.90;;;;;;5048168;28;20590;-78
2022/05/25 07:54:43;;;;;;;1999.90;999.90;;;27.40;99.90;;;;;;5044166;28;20264;-77
2022/05/25 07:57:09;;;;;;;1999.90;999.90;;;27.90;99.90;;;;;;5025831;28;20543;-81
2022/05/25 07:59:35;;;;;;;1999.90;999.90;;;26.80;99.90;;;;;;5032135;28;20189;-77
2022/05/25 08:07:49;;;;;;;1999.90;999.90;;;24.10;99.90;;;;;;5047884;28;20562;-78
2022/05/25 08:10:18;;;;;;;1999.90;999.90;;;24.30;99.90;;;;;;5035518;28;20257;-78
2022/05/25 08:12:45;;;;;;;1999.90;999.90;;;24.60;99.90;;;;;;5032120;28;20225;-74
2022/05/25 08:15:13;;;;;;;1999.90;999.90;;;24.90;99.90;;;;;;5032025;28;20202;-78
2022/05/25 08:17:39;;;;;;;1999.90;999.90;;;25.20;99.90;;;;;;5033063;28;20205;-77
2022/05/25 08:20:06;;;;;;;1999.90;999.90;;;25.60;99.90;;;;;;5074791;28;20186;-77
2022/05/25 08:22:33;;;;;;;1999.90;999.90;;;26.20;99.90;;;;;;5033581;28;20182;-76
2022/05/25 08:24:59;;;;;;;1999.90;999.90;;;26.80;99.90;;;;;;5031934;28;20259;-77
2022/05/25 08:27:24;;;;;;;1999.90;999.90;;;27.70;99.90;;;;;;5033090;28;20639;-77
2022/05/25 08:29:50;;;;;;;1999.90;999.90;;;28.30;99.90;;;;;;5047818;28;20223;-78
2022/05/25 08:32:16;;;;;;;1999.90;999.90;;;28.50;99.90;;;;;;5035682;28;20213;-78
2022/05/25 08:34:42;;;;;;;1999.90;999.90;;;29.50;99.90;;;;;;5038557;28;20551;-76
2022/05/25 08:37:08;;;;;;;1999.90;999.90;;;29.00;99.90;;;;;;5039494;28;20235;-78
2022/05/25 08:39:33;;;;;;;1999.90;999.90;;;27.80;99.90;;;;;;5039419;28;20193;-73
2022/05/25 08:42:05;;;;;;;1999.90;999.90;;;27.30;99.90;;;;;;5056272;28;20181;-75
2022/05/25 08:44:32;;;;;;;1999.90;999.90;;;27.40;99.90;;;;;;5039636;28;20566;-76
2022/05/25 08:47:00;;;;;;;1999.90;999.90;;;27.90;99.90;;;;;;5042887;28;20270;-73
2022/05/25 08:49:30;;;;;;;1999.90;999.90;;;28.10;99.90;;;;;;5052629;28;20229;-77
2022/05/25 08:51:58;;;;;;;1999.90;999.90;;;28.50;99.90;;;;;;5039741;28;20260;-77
2022/05/25 08:54:26;;;;;;;1999.90;999.90;;;28.60;99.90;;;;;;5048215;28;20553;-73
2022/05/25 08:57:14;;;;;;;1999.90;999.90;;;29.20;99.90;;;;;;5039721;28;20210;-77
2022/05/25 08:59:56;;;;;;;1999.90;999.90;;;29.20;99.90;;;;;;5039624;28;20228;-76
2022/05/25 09:02:53;;;;;;;1999.90;999.90;;;29.10;99.90;;;;;;5039670;28;20189;-76
2022/05/25 09:05:34;;;;;;;1999.90;999.90;;;27.60;99.90;;;;;;5071485;28;20206;-81
2022/05/25 09:08:20;;;;;;;1999.90;999.90;;;26.60;99.90;;;;;;5039722;28;20180;-76
2022/05/25 09:10:51;;;;;;;1999.90;999.90;;;26.60;99.90;;;;;;5038611;28;20186;-77
2022/05/25 09:13:36;;;;;;;1999.90;999.90;;;26.70;99.90;;;;;;5054019;28;20196;-77
2022/05/25 09:16:18;;;;;;;1999.90;999.90;;;25.80;99.90;;;;;;5039192;28;20174;-74
2022/05/25 09:19:03;;;;;;;1999.90;999.90;;;24.90;99.90;;;;;;5039730;28;20395;-74
2022/05/25 09:21:34;;;;;;;1999.90;999.90;;;24.30;99.90;;;;;;5038243;28;20270;-76
2022/05/25 09:24:10;;;;;;;1999.90;999.90;;;24.80;99.90;;;;;;5038456;28;20267;-73
2022/05/25 09:26:36;;;;;;;1999.90;999.90;;;24.70;99.90;;;;;;5047089;28;20540;-75
2022/05/25 09:29:07;;;;;;;1999.90;999.90;;;23.80;99.90;;;;;;5071018;28;20187;-76
2022/05/25 09:31:40;;;;;;;1999.90;999.90;;;23.10;99.90;;;;;;5038247;28;20264;-76
2022/05/25 09:34:10;;;;;;;1999.90;999.90;;;22.50;99.90;;;;;;5039554;28;20194;-76
2022/05/25 09:36:48;;;;;;;1999.90;999.90;;;21.90;99.90;;;;;;5039605;28;20182;-74
2022/05/25 09:39:26;;;;;;;1999.90;999.90;;;21.40;99.90;;;;;;5054623;28;20189;-74
2022/05/25 09:41:58;;;;;;;1999.90;999.90;;;21.00;99.90;;;;;;5038827;28;20580;-75
2022/05/25 09:44:26;;;;;;;1999.90;999.90;;;20.70;99.90;;;;;;5036609;28;20578;-75
2022/05/25 09:47:04;;;;;;;1999.90;999.90;;;21.00;99.90;;;;;;5040087;28;20188;-74
2022/05/25 09:49:43;;;;;;;1999.90;999.90;;;21.00;99.90;;;;;;5040899;28;20175;-77
2022/05/25 09:52:23;;;;;;;1999.90;999.90;;;21.00;99.90;;;;;;5047617;28;20191;-79
2022/05/25 09:54:58;;;;;;;1999.90;999.90;;;21.40;99.90;;;;;;5035705;28;20667;-75
2022/05/25 09:57:37;;;;;;;1999.90;999.90;;;21.60;99.90;;;;;;5034476;28;20197;-76
2022/05/25 10:00:15;;;;;;;1999.90;999.90;;;21.40;99.90;;;;;;5044004;28;20237;-76
2022/05/25 10:02:47;;;;;;;1999.90;999.90;;;21.50;99.90;;;;;;5039754;28;20224;-74
2022/05/25 10:05:27;;;;;;;1999.90;999.90;;;21.70;99.90;;;;;;5038557;28;20221;-75
2022/05/25 10:07:53;;;;;;;1999.90;999.90;;;22.10;99.90;;;;;;5036289;28;20196;-72
2022/05/25 10:10:31;;;;;;;1999.90;999.90;;;22.20;99.90;;;;;;5035458;28;20186;-72
2022/05/25 10:13:04;;;;;;;1999.90;999.90;;;22.10;99.90;;;;;;5035019;28;20575;-73
2022/05/25 10:15:38;;;;;;;1999.90;999.90;;;21.70;99.90;;;;;;5037094;28;20218;-75
2022/05/25 10:18:05;;;;;;;1999.90;999.90;;;21.30;99.90;;;;;;5033982;28;20190;-71
2022/05/25 10:20:43;;;;;;;1999.90;999.90;;;20.90;99.90;;;;;;5066987;28;20210;-72
2022/05/25 10:23:23;;;;;;;1999.90;999.90;;;20.80;99.90;;;;;;5035554;28;20217;-70
2022/05/25 10:25:52;;;;;;;1999.90;999.90;;;21.00;99.90;;;;;;5035334;28;20608;-76
2022/05/25 10:28:27;;;;;;;1999.90;999.90;;;21.20;99.90;;;;;;5039662;28;20641;-74
2022/05/25 10:36:53;;;;;;;1999.90;999.90;;;21.10;99.90;;;;;;5035026;28;20191;-70
2022/05/25 10:39:26;;;;;;;1999.90;999.90;;;21.30;99.90;;;;;;5033705;28;20575;-72
2022/05/25 10:41:59;;;;;;;1999.90;999.90;;;21.30;99.90;;;;;;5039792;28;20232;-71
2022/05/25 10:44:29;;;;;;;1999.90;999.90;;;21.10;99.90;;;;;;5035407;28;20217;-71
2022/05/25 10:46:58;;;;;;;1999.90;999.90;;;20.80;99.90;;;;;;5042031;28;20191;-72
2022/05/25 10:49:36;;;;;;;1999.90;999.90;;;20.80;99.90;;;;;;5046563;28;20186;-72
2022/05/25 10:52:27;;;;;;;1999.90;999.90;;;20.90;99.90;;;;;;5031692;28;20196;-74
2022/05/25 10:54:53;;;;;;;1999.90;999.90;;;21.00;99.90;;;;;;5031898;28;20190;-71
2022/05/25 10:58:07;;;;;;;1999.90;999.90;;;21.10;99.90;;;;;;5032520;28;20652;-72
2022/05/25 11:00:45;;;;;;;1999.90;999.90;;;21.10;99.90;;;;;;5036742;28;20321;-71
2022/05/25 11:03:38;;;;;;;1999.90;999.90;;;21.30;99.90;;;;;;5048384;28;20202;-71
2022/05/25 11:06:22;;;;;;;1999.90;999.90;;;21.20;99.90;;;;;;5034302;28;20225;-72
2022/05/25 11:09:15;;;;;;;1999.90;999.90;;;21.00;99.90;;;;;;5033822;28;20183;-71
2022/05/25 11:12:07;;;;;;;1999.90;999.90;;;20.90;99.90;;;;;;5034378;28;20185;-71
2022/05/25 11:15:13;;;;;;;1999.90;999.90;;;21.20;99.90;;;;;;5034660;28;20240;-74
2022/05/25 11:18:00;;;;;;;1999.90;999.90;;;21.50;99.90;;;;;;5035831;28;20194;-71
2022/05/25 11:20:44;;;;;;;1999.90;999.90;;;21.90;99.90;;;;;;5044239;28;20567;-71
2022/05/25 11:24:07;;;;;;;1999.90;999.90;;;21.80;99.90;;;;;;5033727;28;20583;-71
2022/05/25 11:26:57;;;;;;;1999.90;999.90;;;21.70;99.90;;;;;;5030640;28;20640;-71
2022/05/25 11:29:31;;;;;;;1999.90;999.90;;;21.50;99.90;;;;;;5031340;28;20277;-71
2022/05/25 11:32:03;;;;;;;1999.90;999.90;;;21.20;99.90;;;;;;5025325;28;20225;-71
2022/05/25 11:34:45;;;;;;;1999.90;999.90;;;21.10;99.90;;;;;;5033791;28;20190;-71
2022/05/25 11:37:20;;;;;;;1999.90;999.90;;;20.90;99.90;;;;;;5034031;28;20189;-71
2022/05/25 11:40:23;;;;;;;1999.90;999.90;;;20.90;99.90;;;;;;5034086;28;20643;-72
2022/05/25 11:42:51;;;;;;;1999.90;999.90;;;20.80;99.90;;;;;;5031455;28;20202;-71
2022/05/25 11:46:02;;;;;;;1999.90;999.90;;;20.90;99.90;;;;;;5065891;28;20349;-71
2022/05/25 11:48:38;;;;;;;1999.90;999.90;;;20.80;99.90;;;;;;5046248;28;20280;-74
2022/05/25 11:51:28;;;;;;;1999.90;999.90;;;21.20;99.90;;;;;;5035281;28;20265;-72
2022/05/25 11:54:14;;;;;;;1999.90;999.90;;;21.50;99.90;;;;;;5031387;28;20187;-71
2022/05/25 11:56:46;;;;;;;1999.90;999.90;;;21.50;99.90;;;;;;5034054;28;20630;-72
2022/05/25 11:59:32;;;;;;;1999.90;999.90;;;21.20;99.90;;;;;;5033338;28;20624;-71
2022/05/25 12:02:29;;;;;;;1999.90;999.90;;;21.10;99.90;;;;;;5065973;28;20213;-71
2022/05/25 12:05:29;;;;;;;1999.90;999.90;;;21.30;99.90;;;;;;5033467;28;20686;-74
2022/05/25 12:08:09;;;;;;;1999.90;999.90;;;21.50;99.90;;;;;;5032560;28;20189;-72
2022/05/25 12:10:39;;;;;;;1999.90;999.90;;;21.80;99.90;;;;;;5033458;28;20209;-72
2022/05/25 12:13:19;;;;;;;1999.90;999.90;;;21.90;99.90;;;;;;5033319;28;20245;-71
2022/05/25 12:16:17;;;;;;;1999.90;999.90;;;22.00;99.90;;;;;;5033448;28;20154;-72
2022/05/25 12:19:04;;;;;;;1999.90;999.90;;;21.90;99.90;;;;;;5033279;28;20217;-73
2022/05/25 12:21:35;;;;;;;1999.90;999.90;;;22.10;99.90;;;;;;5033839;28;20584;-71
2022/05/25 12:24:11;;;;;;;1999.90;999.90;;;22.30;99.90;;;;;;5033239;28;20557;-71
2022/05/25 12:26:38;;;;;;;1999.90;999.90;;;22.50;99.90;;;;;;5033672;28;20194;-72
2022/05/25 12:29:27;;;;;;;1999.90;999.90;;;22.70;99.90;;;;;;5049038;28;20202;-71
2022/05/25 12:31:58;;;;;;;1999.90;999.90;;;22.80;99.90;;;;;;5033724;28;20187;-71
2022/05/25 12:34:40;;;;;;;1999.90;999.90;;;22.40;99.90;;;;;;5033132;28;20209;-71
2022/05/25 12:37:09;;;;;;;1999.90;999.90;;;22.50;99.90;;;;;;5033081;28;20214;-71
2022/05/25 12:39:47;;;;;;;1999.90;999.90;;;22.40;99.90;;;;;;5064981;28;20270;-71
2022/05/25 12:42:25;;;;;;;1999.90;999.90;;;22.30;99.90;;;;;;5033101;28;20224;-71
2022/05/25 12:50:57;;;;;;;1999.90;999.90;;;21.70;99.90;;;;;;5052674;28;20188;-73
2022/05/25 12:53:31;;;;;;;1999.90;999.90;;;21.20;99.90;;;;;;5052248;28;20186;-73
2022/05/25 12:56:05;;;;;;;1999.90;999.90;;;20.90;99.90;;;;;;5035538;28;20190;-74
2022/05/25 12:59:06;;;;;;;1999.90;999.90;;;21.20;99.90;;;;;;5037147;28;20247;-73
2022/05/25 13:01:39;;;;;;;1999.90;999.90;;;21.80;99.90;;;;;;5035684;28;20197;-78
2022/05/25 13:04:38;;;;;;;1999.90;999.90;;;22.00;99.90;;;;;;5046941;28;20280;-75